Time;durP1;ratioP1;P1;durP2;ratioP2;P2;SDS_P1;SDS_P2;PMS_P1;PMS_P2;Temp;Humidity;BMP_temperature;BMP_pressure;BME280_temperature;BME280_humidity;BME280_pressure;Samples;Min_cycle;Max_cycle;Signal;HPM_P1;HPM_P2
2023/06/14 00:02:17;;;;;;;17.10;14.40;;;;;;;10.01;100.00;98838.43;109365;1250;59013;-78
2023/06/14 00:04:45;;;;;;;17.30;14.70;;;;;;;10.03;100.00;98836.72;109770;1249;66267;-78
2023/06/14 00:07:13;;;;;;;17.40;15.50;;;;;;;10.00;100.00;98834.94;109722;1249;60210;-78
2023/06/14 00:09:40;;;;;;;18.00;16.00;;;;;;;9.99;100.00;98833.79;109703;1249;64065;-78
2023/06/14 00:12:06;;;;;;;20.30;17.60;;;;;;;9.97;100.00;98831.77;109721;1249;59339;-78
2023/06/14 00:14:33;;;;;;;20.40;16.90;;;;;;;9.96;100.00;98830.59;109728;1249;58975;-77
2023/06/14 00:16:59;;;;;;;20.40;16.30;;;;;;;9.94;100.00;98830.56;109374;1250;64852;-78
2023/06/14 00:19:26;;;;;;;18.70;16.00;;;;;;;9.91;100.00;98828.10;109706;1249;58906;-78
2023/06/14 00:21:52;;;;;;;20.50;16.40;;;;;;;9.88;100.00;98828.09;109707;1249;63003;-78
2023/06/14 00:24:19;;;;;;;19.20;16.30;;;;;;;9.88;100.00;98826.38;109703;1249;59005;-78
2023/06/14 00:26:47;;;;;;;20.30;17.80;;;;;;;9.87;100.00;98827.98;109742;1249;59149;-78
2023/06/14 00:29:13;;;;;;;18.10;15.80;;;;;;;9.89;100.00;98830.20;109706;1249;66083;-78
2023/06/14 00:31:40;;;;;;;21.90;17.20;;;;;;;9.91;100.00;98829.02;109705;1249;60025;-77
2023/06/14 00:34:06;;;;;;;19.70;16.50;;;;;;;9.91;100.00;98824.95;109705;1249;59092;-78
2023/06/14 00:36:33;;;;;;;21.70;18.40;;;;;;;9.91;100.00;98822.99;109685;1249;59117;-79
2023/06/14 00:38:59;;;;;;;20.20;16.30;;;;;;;9.90;100.00;98824.63;109728;1249;59086;-77
2023/06/14 00:41:26;;;;;;;19.00;16.30;;;;;;;9.91;100.00;98822.80;109752;1249;64805;-78
2023/06/14 00:43:55;;;;;;;18.50;15.70;;;;;;;9.92;100.00;98824.67;109732;1249;59082;-78
2023/06/14 00:46:22;;;;;;;19.00;16.10;;;;;;;9.93;100.00;98824.63;109721;1249;62876;-78
2023/06/14 00:48:48;;;;;;;16.90;14.60;;;;;;;9.95;100.00;98825.89;109681;1249;58959;-77
2023/06/14 00:51:15;;;;;;;17.70;15.50;;;;;;;9.96;100.00;98824.92;109735;1249;59015;-78
2023/06/14 00:53:46;;;;;;;18.60;15.40;;;;;;;9.97;100.00;98829.52;109731;1249;64810;-78
2023/06/14 00:56:15;;;;;;;16.90;15.10;;;;;;;9.96;100.00;98828.65;109774;1249;59144;-77
2023/06/14 00:58:43;;;;;;;16.50;14.80;;;;;;;9.96;100.00;98828.13;109660;1249;65515;-78
2023/06/14 01:01:10;;;;;;;18.60;14.20;;;;;;;9.95;100.00;98828.17;109713;1249;59190;-78
2023/06/14 01:03:37;;;;;;;15.80;14.00;;;;;;;9.94;100.00;98825.40;109723;1249;59193;-76
2023/06/14 01:06:33;;;;;;;16.20;14.50;;;;;;;9.92;100.00;98815.07;109683;1250;67019;-78
2023/06/14 01:09:21;;;;;;;15.90;14.20;;;;;;;9.88;100.00;98809.86;109750;1249;58997;-77
2023/06/14 01:12:06;;;;;;;17.80;15.00;;;;;;;9.84;100.00;98809.04;109661;1249;62530;-78
2023/06/14 01:14:34;;;;;;;17.80;14.40;;;;;;;9.84;100.00;98808.13;109689;1249;58974;-78
2023/06/14 01:17:02;;;;;;;16.70;14.20;;;;;;;9.86;100.00;98805.52;109711;1249;59132;-77
2023/06/14 01:19:29;;;;;;;17.60;14.40;;;;;;;9.86;100.00;98803.22;109694;1249;65046;-77
2023/06/14 01:21:56;;;;;;;16.30;14.60;;;;;;;9.84;100.00;98804.11;109690;1250;60137;-77
2023/06/14 01:24:28;;;;;;;16.90;15.00;;;;;;;9.85;100.00;98805.08;109715;1249;62988;-77
2023/06/14 01:26:56;;;;;;;18.20;15.10;;;;;;;9.89;100.00;98809.94;109700;1251;58962;-77
2023/06/14 01:29:25;;;;;;;17.60;15.00;;;;;;;9.92;100.00;98804.81;109669;1250;58901;-77
2023/06/14 01:31:53;;;;;;;16.50;14.70;;;;;;;9.92;100.00;98799.64;109881;1247;64878;-78
2023/06/14 01:34:20;;;;;;;15.90;14.20;;;;;;;9.92;100.00;98801.61;109912;1247;60110;-78
2023/06/14 01:36:48;;;;;;;18.50;15.70;;;;;;;9.89;100.00;98804.65;109872;1247;62747;-78
2023/06/14 01:39:15;;;;;;;17.60;15.00;;;;;;;9.85;100.00;98804.87;109886;1247;58972;-78
2023/06/14 01:41:45;;;;;;;14.80;13.30;;;;;;;9.83;100.00;98803.62;109913;1247;59014;-77
2023/06/14 01:44:14;;;;;;;17.80;14.40;;;;;;;9.80;100.00;98805.77;109906;1247;66675;-78
2023/06/14 01:46:41;;;;;;;16.60;13.40;;;;;;;9.77;100.00;98804.58;109920;1247;60222;-75
2023/06/14 01:49:08;;;;;;;15.90;14.20;;;;;;;9.71;100.00;98809.18;109919;1247;62786;-77
2023/06/14 01:51:35;;;;;;;17.30;14.00;;;;;;;9.66;100.00;98811.27;109828;1247;153820;-78
2023/06/14 01:54:02;;;;;;;16.20;13.10;;;;;;;9.65;100.00;98807.82;109932;1247;59001;-78
2023/06/14 01:56:28;;;;;;;16.90;13.60;;;;;;;9.64;100.00;98805.08;109894;1247;66036;-78
2023/06/14 01:58:55;;;;;;;16.00;14.30;;;;;;;9.63;100.00;98804.38;109938;1247;59194;-79
2023/06/14 02:01:22;;;;;;;18.40;15.60;;;;;;;9.63;100.00;98803.17;109932;1247;62837;-77
2023/06/14 02:03:49;;;;;;;17.70;15.90;;;;;;;9.62;100.00;98805.02;109842;1247;58951;-78
2023/06/14 02:06:18;;;;;;;18.20;14.70;;;;;;;9.62;100.00;98799.13;109575;1247;59271;-79
2023/06/14 02:08:45;;;;;;;18.70;15.90;;;;;;;9.64;100.00;98795.69;109886;1248;64509;-78
2023/06/14 02:11:11;;;;;;;21.20;18.00;;;;;;;9.65;100.00;98797.92;109921;1247;60118;-78
2023/06/14 02:13:38;;;;;;;18.50;16.30;;;;;;;9.65;100.00;98797.67;109909;1249;62871;-78
2023/06/14 02:16:05;;;;;;;19.90;17.80;;;;;;;9.68;100.00;98797.69;109873;1247;58918;-78
2023/06/14 02:18:32;;;;;;;20.70;18.20;;;;;;;9.70;100.00;98800.56;109960;1247;58984;-78
2023/06/14 02:20:58;;;;;;;21.10;18.30;;;;;;;9.72;100.00;98800.48;109890;1247;64855;-76
2023/06/14 02:23:25;;;;;;;23.30;20.80;;;;;;;9.74;100.00;98800.30;109935;1247;60025;-78
2023/06/14 02:25:51;;;;;;;24.70;20.50;;;;;;;9.77;100.00;98797.31;109894;1247;59057;-78
2023/06/14 02:28:18;;;;;;;23.60;21.10;;;;;;;9.79;100.00;98796.95;109694;1247;59006;-78
2023/06/14 02:30:44;;;;;;;22.70;20.20;;;;;;;9.81;100.00;98796.70;109556;1247;59047;-78
2023/06/14 02:33:12;;;;;;;22.60;20.10;;;;;;;9.83;100.00;98796.02;109931;1247;59313;-79
2023/06/14 02:35:39;;;;;;;23.30;19.50;;;;;;;9.87;100.00;98800.33;109909;1247;59576;-79
2023/06/14 02:38:06;;;;;;;24.00;19.30;;;;;;;9.92;100.00;98804.10;109880;1247;62504;-79
2023/06/14 02:40:32;;;;;;;25.30;21.10;;;;;;;9.96;100.00;98804.69;109614;1247;59140;-76
2023/06/14 02:42:59;;;;;;;22.90;19.40;;;;;;;10.03;100.00;98801.19;109922;1247;59056;-78
2023/06/14 02:45:26;;;;;;;22.70;19.70;;;;;;;10.09;100.00;98800.80;109884;1247;66269;-78
2023/06/14 02:47:52;;;;;;;22.30;19.10;;;;;;;10.13;100.00;98799.48;109632;1247;58984;-77
2023/06/14 02:50:21;;;;;;;24.40;19.80;;;;;;;10.15;100.00;98793.11;109873;1247;59044;-78
2023/06/14 02:52:47;;;;;;;22.60;19.10;;;;;;;10.17;100.00;98794.44;109554;1247;59012;-77
2023/06/14 02:55:14;;;;;;;22.80;17.60;;;;;;;10.20;100.00;98794.90;109916;1247;58923;-79
2023/06/14 02:57:41;;;;;;;19.30;16.30;;;;;;;10.25;100.00;98794.19;109920;1247;64930;-77
2023/06/14 03:00:12;;;;;;;18.10;15.40;;;;;;;10.31;100.00;98795.97;109598;1247;59013;-78
2023/06/14 03:02:39;;;;;;;17.10;15.30;;;;;;;10.35;100.00;98796.90;109899;1247;62840;-78
2023/06/14 03:05:07;;;;;;;17.60;15.10;;;;;;;10.39;100.00;98793.80;109886;1247;59269;-77
2023/06/14 03:07:34;;;;;;;16.50;14.40;;;;;;;10.42;100.00;98794.13;109602;1247;58921;-77
2023/06/14 03:10:00;;;;;;;18.10;14.30;;;;;;;10.46;100.00;98791.70;109940;1247;66041;-77
2023/06/14 03:12:27;;;;;;;15.50;13.80;;;;;;;10.48;100.00;98790.30;109908;1247;59238;-78
2023/06/14 03:14:56;;;;;;;19.40;15.10;;;;;;;10.51;100.00;98789.93;109901;1247;63785;-78
2023/06/14 03:17:24;;;;;;;16.50;14.80;;;;;;;10.54;100.00;98791.68;109869;1247;59241;-78
2023/06/14 03:19:50;;;;;;;17.30;14.80;;;;;;;10.57;100.00;98789.71;109585;1247;59347;-78
2023/06/14 03:22:17;;;;;;;18.80;15.00;;;;;;;10.61;100.00;98786.23;109905;1247;59255;-77
2023/06/14 03:24:44;;;;;;;17.10;13.90;;;;;;;10.68;100.00;98787.11;109869;1247;58995;-78
2023/06/14 03:27:12;;;;;;;18.50;15.10;;;;;;;10.75;100.00;98788.05;109894;1247;62796;-79
2023/06/14 03:29:38;;;;;;;15.70;14.10;;;;;;;10.82;100.00;98791.48;109879;1247;59323;-77
2023/06/14 03:32:05;;;;;;;16.00;14.30;;;;;;;10.90;100.00;98791.83;109892;1251;59102;-78
2023/06/14 03:34:32;;;;;;;15.00;13.40;;;;;;;10.97;100.00;98789.86;109912;1247;65724;-78
2023/06/14 03:36:58;;;;;;;17.40;14.80;;;;;;;11.05;100.00;98787.89;109925;1247;59071;-78
2023/06/14 03:39:25;;;;;;;17.10;15.20;;;;;;;11.14;100.00;98790.60;109881;1247;63866;-78
2023/06/14 03:41:51;;;;;;;17.10;13.90;;;;;;;11.21;100.00;98796.81;109866;1247;58892;-77
2023/06/14 03:44:18;;;;;;;17.00;13.40;;;;;;;11.29;100.00;98798.42;109917;1248;59018;-77
2023/06/14 03:46:46;;;;;;;17.30;13.10;;;;;;;11.35;100.00;98798.36;109883;1247;65743;-78
2023/06/14 03:49:13;;;;;;;17.70;13.20;;;;;;;11.38;100.00;98800.07;109949;1247;60247;-79
2023/06/14 03:51:39;;;;;;;18.80;14.00;;;;;;;11.43;100.00;98800.44;109888;1247;64106;-77
2023/06/14 03:54:06;;;;;;;17.60;14.40;;;;;;;11.51;100.00;98804.29;109887;1247;59003;-78
2023/06/14 03:56:33;;;;;;;16.80;12.90;;;;;;;11.58;100.00;98801.59;109545;1249;59101;-77
2023/06/14 03:59:00;;;;;;;15.30;13.70;;;;;;;11.65;100.00;98801.30;109920;1247;64410;-78
2023/06/14 04:01:29;;;;;;;18.50;14.30;;;;;;;11.70;100.00;98802.89;109967;1247;59898;-78
2023/06/14 04:03:57;;;;;;;17.50;13.20;;;;;;;11.74;100.00;98806.52;109933;1247;64126;-77
2023/06/14 04:06:24;;;;;;;16.40;13.80;;;;;;;11.78;100.00;98807.43;109874;1247;59000;-77
2023/06/14 04:08:52;;;;;;;18.30;14.30;;;;;;;11.85;100.00;98807.80;109583;1251;59022;-78
2023/06/14 04:11:19;;;;;;;14.70;13.10;;;;;;;11.95;100.00;98808.70;109926;1247;66863;-77
2023/06/14 04:13:46;;;;;;;16.20;13.00;;;;;;;12.06;100.00;98811.94;109883;1247;58986;-78
2023/06/14 04:16:13;;;;;;;15.70;12.70;;;;;;;12.16;100.00;98811.70;109936;1248;62802;-78
2023/06/14 04:18:40;;;;;;;16.70;12.90;;;;;;;12.22;100.00;98810.73;109641;1247;59062;-77
2023/06/14 04:21:08;;;;;;;15.20;12.60;;;;;;;12.27;100.00;98811.23;109931;1247;58876;-77
2023/06/14 04:23:34;;;;;;;16.30;12.60;;;;;;;12.36;100.00;98813.59;109930;1247;64696;-78
2023/06/14 04:26:01;;;;;;;14.50;12.00;;;;;;;12.43;100.00;98812.83;109922;1247;60512;-77
2023/06/14 04:28:28;;;;;;;18.60;12.90;;;;;;;12.52;100.00;98809.64;109877;1247;62723;-78
2023/06/14 04:30:55;;;;;;;16.10;12.60;;;;;;;12.59;100.00;98806.44;109894;1247;58995;-77
2023/06/14 04:33:25;;;;;;;13.90;12.40;;;;;;;12.65;100.00;98810.45;109906;1247;58860;-76
2023/06/14 04:35:53;;;;;;;17.40;14.00;;;;;;;12.68;100.00;98809.98;109922;1247;64877;-77
2023/06/14 04:38:24;;;;;;;16.50;13.00;;;;;;;12.73;100.00;98814.59;109876;1247;59001;-78
2023/06/14 04:40:52;;;;;;;15.10;13.50;;;;;;;12.81;100.00;98812.34;109874;1247;64139;-76
2023/06/14 04:43:24;;;;;;;17.90;13.60;;;;;;;12.92;100.00;98807.92;109594;1247;59307;-77
2023/06/14 04:45:52;;;;;;;13.90;12.20;;;;;;;13.04;100.00;98805.52;109876;1247;59081;-78
2023/06/14 04:48:20;;;;;;;18.70;13.30;;;;;;;13.14;100.00;98800.09;109913;1247;65095;-77
2023/06/14 04:50:46;;;;;;;14.00;11.90;;;;;;;13.27;100.00;98803.90;109898;1247;59002;-77
2023/06/14 04:53:13;;;;;;;15.10;12.60;;;;;;;13.43;100.00;98800.67;109895;1247;63762;-79
2023/06/14 04:55:44;;;;;;;16.70;12.70;;;;;;;13.61;100.00;98798.43;109564;1247;59005;-78
2023/06/14 04:58:12;;;;;;;15.60;12.00;;;;;;;13.83;100.00;98795.15;109900;1247;58921;-77
2023/06/14 05:00:39;;;;;;;18.50;12.10;;;;;;;14.16;100.00;98795.60;109925;1247;66118;-77
2023/06/14 05:03:05;;;;;;;14.40;11.00;;;;;;;14.53;100.00;98797.66;109598;1247;60229;-77
2023/06/14 05:05:33;;;;;;;14.10;11.70;;;;;;;15.21;100.00;98797.73;109897;1247;63768;-78
2023/06/14 05:08:00;;;;;;;13.70;10.90;;;;;;;16.18;100.00;98797.73;109886;1247;59041;-78
2023/06/14 05:10:26;;;;;;;12.10;10.10;;;;;;;16.46;100.00;98802.13;109924;1247;59052;-78
2023/06/14 05:12:54;;;;;;;14.20;11.00;;;;;;;16.42;100.00;98805.92;109881;1247;59427;-78
2023/06/14 05:15:25;;;;;;;13.50;11.30;;;;;;;16.21;100.00;98812.12;109918;1247;58963;-78
2023/06/14 05:17:55;;;;;;;12.70;11.40;;;;;;;16.03;100.00;98815.11;109574;1247;62926;-78
2023/06/14 05:20:24;;;;;;;16.00;12.20;;;;;;;15.96;100.00;98817.20;109858;1248;59002;-78
2023/06/14 05:22:53;;;;;;;14.60;12.30;;;;;;;15.94;100.00;98817.77;109842;1247;59186;-78
2023/06/14 05:25:20;;;;;;;12.90;11.20;;;;;;;15.96;100.00;98816.80;109883;1248;66030;-78
2023/06/14 05:27:48;;;;;;;16.30;12.70;;;;;;;16.06;100.00;98820.54;109881;1247;60255;-78
2023/06/14 05:30:15;;;;;;;14.40;12.90;;;;;;;16.16;100.00;98822.13;109897;1247;64098;-78
2023/06/14 05:32:42;;;;;;;12.50;11.20;;;;;;;16.16;100.00;98825.03;109866;1247;59272;-78
2023/06/14 05:35:09;;;;;;;14.50;11.50;;;;;;;16.11;100.00;98825.29;109871;1247;58936;-78
2023/06/14 05:37:36;;;;;;;14.20;12.20;;;;;;;16.12;100.00;98828.77;109871;1247;65856;-77
2023/06/14 05:40:07;;;;;;;16.60;12.60;;;;;;;16.16;100.00;98832.00;109911;1247;59804;-78
2023/06/14 05:42:33;;;;;;;13.20;11.80;;;;;;;16.18;100.00;98831.66;109408;1247;63775;-76
2023/06/14 05:45:00;;;;;;;14.10;11.50;;;;;;;16.16;100.00;98830.73;109866;1247;59216;-78
2023/06/14 05:47:27;;;;;;;12.50;11.20;;;;;;;16.20;100.00;98830.92;109951;1247;59107;-78
2023/06/14 05:49:55;;;;;;;14.40;11.30;;;;;;;16.24;100.00;98832.70;109905;1247;64842;-78
2023/06/14 05:52:21;;;;;;;14.80;11.30;;;;;;;16.21;100.00;98832.96;109605;1247;59900;-78
2023/06/14 05:54:48;;;;;;;12.70;10.80;;;;;;;16.29;100.00;98835.43;109860;1247;73497;-78
2023/06/14 05:57:14;;;;;;;13.20;10.50;;;;;;;16.48;100.00;98831.36;109904;1247;58989;-77
2023/06/14 05:59:41;;;;;;;12.90;11.20;;;;;;;16.74;100.00;98827.50;109939;1250;59180;-78
2023/06/14 06:02:08;;;;;;;14.30;11.00;;;;;;;16.96;100.00;98833.32;109926;1248;64864;-79
2023/06/14 06:04:34;;;;;;;12.50;11.00;;;;;;;17.18;100.00;98829.34;109896;1247;59958;-77
2023/06/14 06:07:01;;;;;;;13.00;10.20;;;;;;;17.52;100.00;98826.17;109737;1248;64031;-78
2023/06/14 06:09:28;;;;;;;10.60;9.20;;;;;;;17.90;98.86;98825.66;109902;1247;58985;-79
2023/06/14 06:11:54;;;;;;;9.10;8.20;;;;;;;18.23;96.46;98822.73;109887;1247;59007;-78
2023/06/14 06:14:21;;;;;;;9.70;7.80;;;;;;;18.39;95.49;98824.73;109919;1247;67188;-78
2023/06/14 06:16:48;;;;;;;9.90;8.50;;;;;;;18.42;95.67;98821.91;109907;1248;59982;-77
2023/06/14 06:19:15;;;;;;;8.90;7.90;;;;;;;18.46;95.09;98821.50;109857;1250;63726;-78
2023/06/14 06:21:41;;;;;;;10.30;8.40;;;;;;;18.34;93.80;98821.64;109583;1251;59447;-78
2023/06/14 06:24:08;;;;;;;14.20;10.40;;;;;;;18.07;92.50;98826.77;109715;1247;59049;-79
2023/06/14 06:26:34;;;;;;;14.60;10.70;;;;;;;17.75;92.70;98825.96;109848;1247;59056;-77
2023/06/14 06:29:01;;;;;;;13.50;10.40;;;;;;;17.49;93.25;98828.66;109838;1247;60105;-79
2023/06/14 06:31:28;;;;;;;12.30;9.50;;;;;;;17.28;93.53;98837.60;109880;1247;64130;-78
2023/06/14 06:33:55;;;;;;;13.10;10.00;;;;;;;17.07;93.50;98843.73;109903;1247;58999;-78
2023/06/14 06:36:22;;;;;;;11.90;9.80;;;;;;;16.95;94.36;98842.73;109863;1248;58988;-78
2023/06/14 06:38:49;;;;;;;9.20;8.30;;;;;;;16.80;94.97;98849.16;109867;1252;64826;-78
2023/06/14 06:41:15;;;;;;;11.10;8.30;;;;;;;16.58;95.41;98854.13;109884;1247;58979;-78
2023/06/14 06:43:42;;;;;;;11.80;8.90;;;;;;;16.31;96.62;98856.07;109860;1248;64083;-79
2023/06/14 06:46:08;;;;;;;11.20;8.60;;;;;;;16.13;98.07;98856.82;109905;1247;58930;-78
2023/06/14 06:48:35;;;;;;;9.50;8.10;;;;;;;15.97;98.63;98857.23;109911;1248;59077;-77
2023/06/14 06:51:01;;;;;;;9.70;8.40;;;;;;;15.80;99.66;98859.30;109567;1247;58949;-77
2023/06/14 06:53:28;;;;;;;12.80;7.30;;;;;;;15.69;100.00;98861.23;109565;1247;59778;-78
2023/06/14 06:55:55;;;;;;;8.00;6.60;;;;;;;15.58;100.00;98863.95;109903;1247;64033;-78
2023/06/14 06:58:22;;;;;;;7.60;6.70;;;;;;;15.46;100.00;98864.46;109929;1247;58980;-78
2023/06/14 07:00:48;;;;;;;8.30;6.60;;;;;;;15.39;100.00;98869.23;109913;1251;59005;-78
2023/06/14 07:03:15;;;;;;;7.60;6.60;;;;;;;15.36;100.00;98871.97;109873;1247;64645;-77
2023/06/14 07:05:42;;;;;;;5.30;4.80;;;;;;;15.31;100.00;98874.39;109628;1247;59187;-79
2023/06/14 07:08:08;;;;;;;6.00;4.70;;;;;;;15.24;100.00;98876.51;109863;1247;64034;-79
2023/06/14 07:10:35;;;;;;;5.40;4.70;;;;;;;15.17;100.00;98881.77;109870;1248;58961;-79
2023/06/14 07:13:01;;;;;;;5.40;4.90;;;;;;;15.12;100.00;98880.55;109536;1256;59210;-79
2023/06/14 07:15:28;;;;;;;9.00;7.10;;;;;;;15.07;100.00;98880.13;109895;1247;66045;-79
2023/06/14 07:17:59;;;;;;;7.40;6.60;;;;;;;15.02;100.00;98881.64;109520;1247;59041;-79
2023/06/14 07:20:26;;;;;;;8.40;7.50;;;;;;;14.96;100.00;98885.34;109846;1247;62873;-78
2023/06/14 07:22:52;;;;;;;7.80;7.00;;;;;;;14.93;100.00;98887.38;109916;1247;58905;-78
2023/06/14 07:25:19;;;;;;;5.30;4.80;;;;;;;14.93;100.00;98890.08;109890;1247;58941;-78
2023/06/14 07:27:46;;;;;;;6.70;5.00;;;;;;;14.90;100.00;98890.88;109898;1248;66517;-77
2023/06/14 07:30:13;;;;;;;6.30;4.90;;;;;;;14.82;100.00;98889.92;109913;1247;58988;-77
2023/06/14 07:32:39;;;;;;;6.10;5.50;;;;;;;14.80;100.00;98893.86;109904;1247;63889;-78
2023/06/14 07:35:06;;;;;;;6.80;5.70;;;;;;;14.88;100.00;98894.59;109885;1247;59230;-77
2023/06/14 07:37:33;;;;;;;6.90;5.60;;;;;;;15.02;100.00;98896.30;109878;1247;58970;-78
2023/06/14 07:39:59;;;;;;;6.20;5.60;;;;;;;15.16;100.00;98896.70;109886;1250;65755;-77
2023/06/14 07:42:26;;;;;;;6.40;5.00;;;;;;;15.32;100.00;98896.52;109871;1247;58922;-78
2023/06/14 07:44:53;;;;;;;6.80;4.60;;;;;;;15.48;100.00;98897.64;109847;1247;62906;-77
2023/06/14 07:47:20;;;;;;;6.00;4.70;;;;;;;15.66;100.00;98900.17;109826;1247;58983;-77
2023/06/14 07:49:46;;;;;;;4.40;3.70;;;;;;;15.85;100.00;98904.40;109893;1252;59025;-78
2023/06/14 07:52:13;;;;;;;3.90;3.50;;;;;;;15.95;100.00;98904.20;109863;1247;64816;-78
2023/06/14 07:54:40;;;;;;;4.10;3.70;;;;;;;15.96;100.00;98906.98;109853;1247;60083;-78
2023/06/14 07:57:08;;;;;;;7.10;6.00;;;;;;;15.95;100.00;98908.29;109861;1248;63828;-78
2023/06/14 07:59:35;;;;;;;6.20;5.30;;;;;;;15.97;100.00;98907.20;109862;1247;59175;-78
2023/06/14 08:02:02;;;;;;;5.50;5.00;;;;;;;16.05;100.00;98904.20;109882;1247;59368;-78
2023/06/14 08:04:28;;;;;;;10.80;5.60;;;;;;;16.14;100.00;98900.09;109830;1252;65735;-79
2023/06/14 08:06:55;;;;;;;5.70;5.10;;;;;;;16.31;100.00;98894.28;109794;1247;59230;-78
2023/06/14 08:09:22;;;;;;;6.90;5.80;;;;;;;16.44;100.00;98893.39;109570;1248;62526;-78
2023/06/14 08:11:49;;;;;;;6.30;5.70;;;;;;;16.54;100.00;98895.72;109557;1247;58982;-78
2023/06/14 08:14:15;;;;;;;7.00;6.30;;;;;;;16.63;100.00;98896.11;109513;1257;59062;-79
2023/06/14 08:16:42;;;;;;;7.10;6.40;;;;;;;16.74;100.00;98894.91;109906;1247;66004;-79
2023/06/14 08:19:08;;;;;;;6.80;6.10;;;;;;;16.88;100.00;98892.23;109913;1247;58999;-79
2023/06/14 08:21:36;;;;;;;7.50;6.80;;;;;;;17.06;100.00;98890.27;109910;1247;62924;-78
2023/06/14 08:24:03;;;;;;;7.50;6.80;;;;;;;17.27;100.00;98886.86;109902;1248;59315;-79
2023/06/14 08:26:31;;;;;;;8.10;6.90;;;;;;;17.51;100.00;98887.25;109583;1247;59163;-79
2023/06/14 08:28:58;;;;;;;6.50;5.90;;;;;;;17.79;100.00;98886.45;109915;1247;66214;-78
2023/06/14 08:31:25;;;;;;;8.00;5.50;;;;;;;17.91;100.00;98885.34;109904;1247;59966;-79
2023/06/14 08:33:51;;;;;;;5.50;5.10;;;;;;;17.96;100.00;98891.41;109857;1247;63806;-78
2023/06/14 08:36:18;;;;;;;5.80;5.30;;;;;;;17.95;100.00;98892.25;109867;1247;58979;-78
2023/06/14 08:38:45;;;;;;;6.50;5.90;;;;;;;17.80;100.00;98897.16;109899;1247;59253;-79
2023/06/14 08:41:13;;;;;;;6.30;5.70;;;;;;;17.61;100.00;98898.47;109561;1248;65703;-77
2023/06/14 08:43:40;;;;;;;6.10;5.40;;;;;;;17.39;100.00;98899.87;109883;1248;59850;-79
2023/06/14 08:46:10;;;;;;;6.50;5.90;;;;;;;17.17;100.00;98904.35;109869;1252;65434;-79
2023/06/14 08:48:37;;;;;;;5.70;5.20;;;;;;;17.04;100.00;98908.82;109887;1248;59145;-79
2023/06/14 08:51:04;;;;;;;6.40;5.80;;;;;;;16.87;100.00;98911.30;109868;1247;59152;-79
2023/06/14 08:53:33;;;;;;;6.60;5.90;;;;;;;16.79;100.00;98910.45;109886;1247;66332;-78
2023/06/14 08:56:04;;;;;;;6.70;6.00;;;;;;;16.84;100.00;98912.85;109889;1247;58991;-78
2023/06/14 08:58:33;;;;;;;6.10;5.60;;;;;;;16.89;100.00;98916.33;109923;1248;64052;-78
2023/06/14 09:01:04;;;;;;;6.20;5.60;;;;;;;16.92;100.00;98921.65;109865;1247;58950;-78
2023/06/14 09:03:32;;;;;;;6.10;5.50;;;;;;;16.94;100.00;98923.94;109875;1248;59170;-78
2023/06/14 09:06:00;;;;;;;7.50;6.80;;;;;;;16.90;100.00;98923.92;109563;1248;64796;-78
2023/06/14 09:08:30;;;;;;;6.40;5.90;;;;;;;16.91;100.00;98927.09;109966;1247;59863;-78
2023/06/14 09:10:57;;;;;;;7.50;6.80;;;;;;;16.83;100.00;98928.21;109866;1247;62920;-78
2023/06/14 09:13:24;;;;;;;8.20;7.40;;;;;;;16.70;100.00;98929.93;109898;1247;59240;-79
2023/06/14 09:15:51;;;;;;;8.00;7.20;;;;;;;16.61;100.00;98931.13;109860;1248;59779;-79
2023/06/14 09:18:17;;;;;;;8.10;7.20;;;;;;;16.58;100.00;98929.29;109865;1248;66382;-78
2023/06/14 09:20:44;;;;;;;8.40;7.50;;;;;;;16.62;100.00;98928.18;109863;1247;68894;-79
2023/06/14 09:23:11;;;;;;;10.60;9.20;;;;;;;16.59;100.00;98926.69;109926;1247;64064;-79
2023/06/14 09:25:45;;;;;;;10.10;9.00;;;;;;;16.51;100.00;98929.85;109874;1248;58961;-77
2023/06/14 09:28:12;;;;;;;11.10;10.10;;;;;;;16.52;100.00;98929.77;109885;1248;58889;-78
2023/06/14 09:30:38;;;;;;;11.00;10.00;;;;;;;16.55;100.00;98934.75;109912;1247;65723;-77
2023/06/14 09:33:05;;;;;;;11.10;10.10;;;;;;;16.55;100.00;98932.38;109914;1247;59891;-78
2023/06/14 09:35:32;;;;;;;11.70;10.50;;;;;;;16.55;100.00;98936.30;109899;1247;62857;-79
2023/06/14 09:37:59;;;;;;;12.10;11.00;;;;;;;16.54;100.00;98938.55;109837;1247;59372;-79
2023/06/14 09:40:26;;;;;;;12.10;10.80;;;;;;;16.54;100.00;98935.95;109875;1247;59201;-78
2023/06/14 09:42:53;;;;;;;11.30;10.10;;;;;;;16.50;100.00;98930.90;109900;1248;65724;-78
2023/06/14 09:45:21;;;;;;;12.20;10.20;;;;;;;16.41;100.00;98930.62;109888;1248;59731;-78
2023/06/14 09:47:51;;;;;;;15.20;9.70;;;;;;;16.38;100.00;98926.63;109875;1247;62604;-79
2023/06/14 09:50:17;;;;;;;9.60;8.60;;;;;;;16.36;100.00;98928.23;109897;1248;58986;-77
2023/06/14 09:52:46;;;;;;;10.50;8.90;;;;;;;16.36;100.00;98928.61;109882;1247;59000;-78
2023/06/14 09:55:13;;;;;;;9.50;8.40;;;;;;;16.34;100.00;98931.86;109875;1248;66051;-80
2023/06/14 09:57:46;;;;;;;10.40;8.60;;;;;;;16.33;100.00;98931.75;109897;1247;59208;-79
2023/06/14 10:00:15;;;;;;;10.20;7.50;;;;;;;16.32;100.00;98931.81;109675;1248;62967;-79
2023/06/14 10:02:47;;;;;;;10.40;8.10;;;;;;;16.33;100.00;98934.77;109841;1247;58999;-78
2023/06/14 10:05:17;;;;;;;11.20;7.70;;;;;;;16.35;100.00;98938.38;109855;1247;59297;-78
2023/06/14 10:08:04;;;;;;;10.70;9.30;;;;;;;16.36;100.00;98935.56;109897;1248;65711;-81
2023/06/14 10:10:31;;;;;;;9.90;8.30;;;;;;;16.30;100.00;98935.94;109700;1247;59091;-79
2023/06/14 10:12:58;;;;;;;10.20;8.30;;;;;;;16.23;100.00;98935.51;109899;1248;64022;-78
2023/06/14 10:15:34;;;;;;;9.40;8.40;;;;;;;16.19;100.00;98935.35;109868;1247;58955;-80
2023/06/14 10:18:14;;;;;;;10.40;8.10;;;;;;;16.19;100.00;98937.14;109888;1247;58955;-78
2023/06/14 10:21:21;;;;;;;8.00;6.80;;;;;;;16.30;100.00;98941.52;109885;1251;64904;-78
2023/06/14 10:23:49;;;;;;;6.50;5.90;;;;;;;16.64;100.00;98938.41;109884;1248;59012;-79
2023/06/14 10:26:24;;;;;;;7.10;6.40;;;;;;;16.97;100.00;98934.36;109906;1247;64023;-78
2023/06/14 10:29:07;;;;;;;7.10;6.10;;;;;;;17.30;100.00;98930.41;109885;1247;58965;-78
2023/06/14 10:31:42;;;;;;;5.60;4.70;;;;;;;17.67;100.00;98925.52;109866;1247;59847;-78
2023/06/14 10:34:08;;;;;;;5.20;4.80;;;;;;;18.06;100.00;98922.64;109867;1247;64838;-78
2023/06/14 10:36:35;;;;;;;3.80;3.50;;;;;;;18.41;100.00;98921.09;109895;1247;59110;-78
2023/06/14 10:39:10;;;;;;;3.50;3.30;;;;;;;18.71;99.78;98920.43;109892;1247;62913;-80
2023/06/14 10:41:38;;;;;;;3.60;3.40;;;;;;;18.95;98.46;98914.95;109904;1248;59705;-77
2023/06/14 10:44:14;;;;;;;2.50;2.30;;;;;;;19.33;97.06;98911.02;109887;1247;59029;-77
2023/06/14 10:46:46;;;;;;;3.80;3.50;;;;;;;19.90;93.34;98913.98;109883;1247;65716;-79
2023/06/14 10:49:18;;;;;;;2.90;2.70;;;;;;;20.36;90.88;98914.87;109924;1247;59922;-78
2023/06/14 10:51:49;;;;;;;3.20;2.90;;;;;;;20.85;89.64;98913.45;109865;1247;62540;-78
2023/06/14 10:54:16;;;;;;;3.00;1.80;;;;;;;21.27;87.41;98910.00;109906;1247;58955;-78
2023/06/14 10:56:50;;;;;;;1.80;1.70;;;;;;;21.44;82.67;98907.34;109852;1247;58944;-77
2023/06/14 10:59:19;;;;;;;2.50;2.10;;;;;;;21.51;82.38;98905.56;109909;1247;64793;-77
2023/06/14 11:02:04;;;;;;;2.90;2.70;;;;;;;21.56;81.43;98908.23;109875;1247;59078;-78
2023/06/14 11:04:46;;;;;;;2.80;2.40;;;;;;;21.49;79.27;98906.61;109896;1247;64038;-79
2023/06/14 11:07:30;;;;;;;3.10;2.80;;;;;;;21.34;78.38;98905.83;109913;1247;59239;-79
2023/06/14 11:10:15;;;;;;;1.70;1.60;;;;;;;21.14;76.56;98905.65;109886;1247;58960;-77
2023/06/14 11:12:47;;;;;;;1.80;1.50;;;;;;;21.03;76.90;98906.31;109927;1247;65826;-77
2023/06/14 11:15:14;;;;;;;1.40;1.40;;;;;;;21.08;75.46;98903.50;109916;1247;59986;-79